createdAt,value
2023-02-16T00:01:24.260Z,45.99
2023-02-16T00:03:52.538Z,46.12
2023-02-16T00:06:19.265Z,46.02
2023-02-16T00:08:47.781Z,45.93
2023-02-16T00:11:46.675Z,45.89
2023-02-16T00:14:14.320Z,46.31
2023-02-16T00:16:41.202Z,45.87
2023-02-16T00:19:34.785Z,45.88
2023-02-16T00:22:02.053Z,45.77
2023-02-16T00:24:29.887Z,45.49
2023-02-16T00:26:57.740Z,45.72
2023-02-16T00:29:28.616Z,46.12
2023-02-16T00:31:57.051Z,45.68
2023-02-16T00:34:33.097Z,45.99
2023-02-16T00:37:03.108Z,45.72
2023-02-16T00:39:30.003Z,45.56
2023-02-16T00:42:00.236Z,46.00
2023-02-16T00:44:48.441Z,46.36
2023-02-16T00:47:39.945Z,45.77
2023-02-16T00:50:19.872Z,46.17
2023-02-16T00:52:47.424Z,45.85
2023-02-16T00:55:16.652Z,45.56
2023-02-16T00:57:57.106Z,45.70
2023-02-16T01:00:34.041Z,46.06
2023-02-16T01:03:02.830Z,45.50
2023-02-16T01:05:29.459Z,45.92
2023-02-16T01:08:14.833Z,45.89
2023-02-16T01:11:11.035Z,46.21
2023-02-16T01:13:45.290Z,46.03
2023-02-16T01:16:23.371Z,46.37
2023-02-16T01:18:50.673Z,45.67
2023-02-16T01:21:17.322Z,45.32
2023-02-16T01:23:44.299Z,45.79
2023-02-16T01:26:14.446Z,45.93
2023-02-16T01:28:41.185Z,46.15
2023-02-16T01:31:10.413Z,46.18
2023-02-16T01:33:37.049Z,45.91
2023-02-16T01:36:04.569Z,45.37
2023-02-16T01:38:31.095Z,45.40
2023-02-16T01:41:22.469Z,46.12
2023-02-16T01:44:01.492Z,45.80
2023-02-16T01:46:49.634Z,46.27
2023-02-16T01:49:18.328Z,45.98
2023-02-16T01:51:47.424Z,45.61
2023-02-16T01:54:29.362Z,45.76
2023-02-16T01:57:39.140Z,46.40
2023-02-16T02:00:34.405Z,45.91
2023-02-16T02:03:21.493Z,45.38
2023-02-16T02:05:50.213Z,45.83
2023-02-16T02:08:31.556Z,46.10
2023-02-16T02:11:20.425Z,45.69
2023-02-16T02:13:55.601Z,46.43
2023-02-16T02:16:25.159Z,45.93
2023-02-16T02:18:52.091Z,45.60
2023-02-16T02:22:08.538Z,46.48
2023-02-16T02:24:53.369Z,46.00
2023-02-16T02:27:26.700Z,45.80
2023-02-16T02:29:53.157Z,46.53
2023-02-16T02:32:25.628Z,46.06
2023-02-16T02:35:07.330Z,45.75
2023-02-16T02:37:44.371Z,46.06
2023-02-16T02:40:41.821Z,45.60
2023-02-16T02:43:16.186Z,45.84
2023-02-16T02:45:56.343Z,45.48
2023-02-16T02:48:23.149Z,45.89
2023-02-16T02:51:08.002Z,45.43
2023-02-16T02:53:39.056Z,45.37
2023-02-16T02:56:26.653Z,45.52
2023-02-16T02:59:16.541Z,46.03
2023-02-16T03:01:50.157Z,45.44
2023-02-16T03:04:21.364Z,45.30
2023-02-16T03:06:51.598Z,45.47
2023-02-16T03:09:19.046Z,45.99
2023-02-16T03:12:07.559Z,45.95
2023-02-16T03:14:39.196Z,45.50
2023-02-16T03:17:34.446Z,46.43
2023-02-16T03:20:23.829Z,45.39
2023-02-16T03:23:09.902Z,45.32
2023-02-16T03:25:57.980Z,45.80
2023-02-16T03:28:50.245Z,45.07
2023-02-16T03:31:25.184Z,45.79
2023-02-16T03:33:54.577Z,45.92
2023-02-16T03:36:26.847Z,46.07
2023-02-16T03:38:55.892Z,45.88
2023-02-16T03:41:23.485Z,45.50
2023-02-16T03:43:49.973Z,46.22
2023-02-16T03:46:16.674Z,45.91
2023-02-16T03:48:43.397Z,45.39
2023-02-16T03:51:09.923Z,45.63
2023-02-16T03:53:36.428Z,45.25
2023-02-16T03:56:02.960Z,45.25
2023-02-16T03:58:29.530Z,45.85
2023-02-16T04:00:56.769Z,46.25
2023-02-16T04:03:23.257Z,45.40
2023-02-16T04:05:49.820Z,45.47
2023-02-16T04:08:16.380Z,45.65
2023-02-16T04:10:43.567Z,45.21
2023-02-16T04:13:10.168Z,45.47
2023-02-16T04:15:36.732Z,45.33
2023-02-16T04:18:03.563Z,45.75
2023-02-16T04:20:32.654Z,45.43
2023-02-16T04:22:59.394Z,45.59
2023-02-16T04:25:26.820Z,44.95
2023-02-16T04:27:54.058Z,45.76
2023-02-16T04:30:23.509Z,45.27
2023-02-16T04:32:50.562Z,45.40
2023-02-16T04:35:17.884Z,45.78
2023-02-16T04:37:45.000Z,44.86
2023-02-16T04:40:16.216Z,44.84
2023-02-16T04:42:44.367Z,44.76
2023-02-16T04:45:11.540Z,45.20
2023-02-16T04:47:38.022Z,45.31
2023-02-16T04:50:05.070Z,45.20
2023-02-16T04:52:32.194Z,45.42
2023-02-16T04:54:58.747Z,45.62
2023-02-16T04:57:25.501Z,45.87
2023-02-16T04:59:52.022Z,45.39
2023-02-16T05:02:18.554Z,45.77
2023-02-16T05:04:45.136Z,45.30
2023-02-16T05:07:11.731Z,46.13
2023-02-16T05:09:38.279Z,45.77
2023-02-16T05:12:23.414Z,45.94
2023-02-16T05:14:50.157Z,45.23
2023-02-16T05:17:19.925Z,45.81
2023-02-16T05:19:49.469Z,45.38
2023-02-16T05:22:16.467Z,45.89
2023-02-16T05:24:43.530Z,45.87
2023-02-16T05:27:14.159Z,45.86
2023-02-16T05:29:40.798Z,45.69
2023-02-16T05:32:07.652Z,45.97
2023-02-16T05:34:34.316Z,45.92
2023-02-16T05:37:00.876Z,45.57
2023-02-16T05:39:28.203Z,45.71
2023-02-16T05:41:54.726Z,45.35
2023-02-16T05:44:21.234Z,45.78
2023-02-16T05:46:47.841Z,45.88
2023-02-16T05:49:15.786Z,45.59
2023-02-16T05:51:42.331Z,45.28
2023-02-16T05:54:10.689Z,45.90
2023-02-16T05:56:37.232Z,45.82
2023-02-16T05:59:03.787Z,45.15
2023-02-16T06:01:30.306Z,46.02
2023-02-16T06:03:56.915Z,45.30
2023-02-16T06:06:23.562Z,45.79
2023-02-16T06:08:50.119Z,46.13
2023-02-16T06:11:43.082Z,45.44
2023-02-16T06:14:15.340Z,45.55
2023-02-16T06:16:44.620Z,45.32
2023-02-16T06:19:12.152Z,46.00
2023-02-16T06:21:39.628Z,45.68
2023-02-16T06:24:08.147Z,45.21
2023-02-16T06:26:35.052Z,46.05
2023-02-16T06:29:01.598Z,46.10
2023-02-16T06:31:28.238Z,45.99
2023-02-16T06:33:56.753Z,45.54
2023-02-16T06:36:24.388Z,45.84
2023-02-16T06:38:51.454Z,45.69
2023-02-16T06:41:31.441Z,45.16
2023-02-16T06:43:59.762Z,45.89
2023-02-16T06:46:27.036Z,45.81
2023-02-16T06:48:53.655Z,46.00
2023-02-16T06:51:20.378Z,45.00
2023-02-16T06:53:47.580Z,45.60
2023-02-16T06:56:14.090Z,46.02
2023-02-16T06:58:40.759Z,45.66
2023-02-16T07:01:07.613Z,45.43
2023-02-16T07:03:35.407Z,45.43
2023-02-16T07:06:02.184Z,45.81
2023-02-16T07:08:29.040Z,45.44
2023-02-16T07:10:55.603Z,45.81
2023-02-16T07:13:22.449Z,45.66
2023-02-16T07:15:48.979Z,45.40
2023-02-16T07:18:15.549Z,46.00
2023-02-16T07:20:42.106Z,46.26
2023-02-16T07:23:08.629Z,45.74
2023-02-16T07:25:36.752Z,45.43
2023-02-16T07:28:03.630Z,45.45
2023-02-16T07:30:30.214Z,45.75
2023-02-16T07:32:56.782Z,45.02
2023-02-16T07:35:23.357Z,46.10
2023-02-16T07:37:49.950Z,45.56
2023-02-16T07:40:16.482Z,46.13
2023-02-16T07:42:43.020Z,45.87
2023-02-16T07:45:09.748Z,46.31
2023-02-16T07:47:36.609Z,45.42
2023-02-16T07:50:03.630Z,46.07
2023-02-16T07:52:31.359Z,45.04
2023-02-16T07:54:59.217Z,45.11
2023-02-16T07:57:27.195Z,45.79
2023-02-16T07:59:54.703Z,46.24
2023-02-16T08:02:22.747Z,45.43
2023-02-16T08:04:50.167Z,45.56
2023-02-16T08:07:18.073Z,46.06
2023-02-16T08:09:45.014Z,45.55
2023-02-16T08:12:14.395Z,45.07
2023-02-16T08:14:40.919Z,45.96
2023-02-16T08:17:08.230Z,45.84
2023-02-16T08:19:34.934Z,46.07
2023-02-16T08:22:02.510Z,45.55
2023-02-16T08:24:29.570Z,45.86
2023-02-16T08:26:56.688Z,45.49
2023-02-16T08:29:24.052Z,45.60
2023-02-16T08:31:51.064Z,45.83
2023-02-16T08:34:20.135Z,45.67
2023-02-16T08:36:53.048Z,45.92
2023-02-16T08:39:21.092Z,45.50
2023-02-16T08:41:50.017Z,45.92
2023-02-16T08:44:17.774Z,45.54
2023-02-16T08:46:46.511Z,46.37
2023-02-16T08:49:15.681Z,46.13
2023-02-16T08:51:44.459Z,45.83
2023-02-16T08:54:16.816Z,45.25
2023-02-16T08:56:46.975Z,45.72
2023-02-16T08:59:18.123Z,46.13
2023-02-16T09:01:44.948Z,45.28
2023-02-16T09:04:12.914Z,45.68
2023-02-16T09:06:42.097Z,45.66
2023-02-16T09:09:09.860Z,45.79
2023-02-16T09:11:37.084Z,45.44
2023-02-16T09:14:04.936Z,45.60
2023-02-16T09:16:38.497Z,45.89
2023-02-16T09:19:08.168Z,45.70
2023-02-16T09:21:35.021Z,45.29
2023-02-16T09:24:03.661Z,45.57
2023-02-16T09:26:38.480Z,46.37
2023-02-16T09:29:07.053Z,46.33
2023-02-16T09:31:37.184Z,45.26
2023-02-16T09:34:13.844Z,46.15
2023-02-16T09:36:40.415Z,46.33
2023-02-16T09:39:07.991Z,46.24
2023-02-16T09:41:53.401Z,46.18
2023-02-16T09:44:28.769Z,46.30
2023-02-16T09:46:58.668Z,45.79
2023-02-16T09:49:35.409Z,45.53
2023-02-16T09:52:16.218Z,46.26
2023-02-16T09:54:54.826Z,46.18
2023-02-16T09:57:47.293Z,46.38
2023-02-16T10:00:23.528Z,45.67
2023-02-16T10:03:13.684Z,46.14
2023-02-16T10:06:18.534Z,45.71
2023-02-16T10:08:54.830Z,46.40
2023-02-16T10:11:46.558Z,46.17
2023-02-16T10:14:33.518Z,46.32
2023-02-16T10:17:28.228Z,45.99
2023-02-16T10:20:21.430Z,45.74
2023-02-16T10:23:23.036Z,45.88
2023-02-16T10:25:56.474Z,45.79
2023-02-16T10:28:40.750Z,46.44
2023-02-16T10:31:31.246Z,46.52
2023-02-16T10:34:16.836Z,46.34
2023-02-16T10:36:46.360Z,46.39
2023-02-16T10:39:26.303Z,45.57
2023-02-16T10:42:09.856Z,46.67
2023-02-16T10:44:44.090Z,46.15
2023-02-16T10:47:35.731Z,46.08
2023-02-16T10:50:03.214Z,46.03
2023-02-16T10:52:34.392Z,46.17
2023-02-16T10:55:01.538Z,46.16
2023-02-16T10:57:31.592Z,46.54
2023-02-16T11:00:01.560Z,46.18
2023-02-16T11:02:35.266Z,46.58
2023-02-16T11:05:01.922Z,46.50
2023-02-16T11:07:30.149Z,46.44
2023-02-16T11:10:00.839Z,46.92
2023-02-16T11:12:32.417Z,46.77
2023-02-16T11:15:06.792Z,46.67
2023-02-16T11:17:49.864Z,46.64
2023-02-16T11:20:53.196Z,46.90
2023-02-16T11:23:29.001Z,46.53
2023-02-16T11:25:58.648Z,46.32
2023-02-16T11:28:32.133Z,46.17
2023-02-16T11:31:25.367Z,46.89
2023-02-16T11:34:02.307Z,46.75
2023-02-16T11:36:37.571Z,47.06
2023-02-16T11:39:30.985Z,47.02
2023-02-16T11:42:06.101Z,46.87
2023-02-16T11:44:46.532Z,47.06
2023-02-16T11:47:25.201Z,46.53
2023-02-16T11:50:17.081Z,46.83
2023-02-16T11:52:43.612Z,46.79
2023-02-16T11:55:26.700Z,46.26
2023-02-16T11:57:54.187Z,47.03
2023-02-16T12:00:22.741Z,46.35
2023-02-16T12:03:08.331Z,47.21
2023-02-16T12:06:11.522Z,46.98
2023-02-16T12:08:59.740Z,46.75
2023-02-16T12:11:28.136Z,47.55
2023-02-16T12:14:17.748Z,47.36
2023-02-16T12:16:57.419Z,47.15
2023-02-16T12:19:38.338Z,46.91
2023-02-16T12:22:28.129Z,47.17
2023-02-16T12:25:19.946Z,46.94
2023-02-16T12:28:18.462Z,46.49
2023-02-16T12:31:09.337Z,46.81
2023-02-16T12:33:53.848Z,46.58
2023-02-16T12:36:23.889Z,46.48
2023-02-16T12:39:28.459Z,46.66
2023-02-16T12:42:03.834Z,47.17
2023-02-16T12:44:46.256Z,46.73
2023-02-16T12:47:50.057Z,46.76
2023-02-16T12:50:29.196Z,47.29
2023-02-16T12:53:28.300Z,47.27
2023-02-16T12:56:07.664Z,46.45
2023-02-16T12:58:44.444Z,47.03
2023-02-16T13:01:21.938Z,46.97
2023-02-16T13:03:57.496Z,46.85
2023-02-16T13:06:40.221Z,46.59
2023-02-16T13:09:46.648Z,47.12
2023-02-16T13:12:39.555Z,47.06
2023-02-16T13:15:43.591Z,46.77
2023-02-16T13:18:22.002Z,46.73
2023-02-16T13:20:59.117Z,46.25
2023-02-16T13:23:53.041Z,46.42
2023-02-16T13:26:22.469Z,46.38
2023-02-16T13:29:23.495Z,46.46
2023-02-16T13:35:01.345Z,45.99
2023-02-16T13:37:49.478Z,46.48
2023-02-16T13:40:41.533Z,46.53
2023-02-16T13:43:26.685Z,46.20
2023-02-16T13:45:54.564Z,46.27
2023-02-16T13:48:33.313Z,46.02
2023-02-16T13:51:11.946Z,45.86
2023-02-16T13:53:41.768Z,46.31
2023-02-16T13:56:12.978Z,46.35
2023-02-16T13:58:40.819Z,45.82
2023-02-16T14:01:32.190Z,46.05
2023-02-16T14:04:01.334Z,46.18
2023-02-16T14:06:29.462Z,46.21
2023-02-16T14:09:14.341Z,46.12
2023-02-16T14:11:53.178Z,45.77
2023-02-16T14:14:25.551Z,46.21
2023-02-16T14:16:52.073Z,46.68
2023-02-16T14:19:24.823Z,46.65
2023-02-16T14:21:51.774Z,46.19
2023-02-16T14:24:33.808Z,46.69
2023-02-16T14:27:01.623Z,46.41
2023-02-16T14:29:42.660Z,46.23
2023-02-16T14:32:29.601Z,46.18
2023-02-16T14:35:23.430Z,46.95
2023-02-16T14:38:03.566Z,46.68
2023-02-16T14:40:36.156Z,47.18
2023-02-16T14:43:40.543Z,47.90
2023-02-16T14:46:36.384Z,47.19
2023-02-16T14:49:33.943Z,47.87
2023-02-16T14:52:15.484Z,47.88
2023-02-16T14:55:15.858Z,49.09
2023-02-16T14:57:51.973Z,48.37
2023-02-16T15:00:29.089Z,48.81
2023-02-16T15:03:17.489Z,48.92
2023-02-16T15:05:52.305Z,48.27
2023-02-16T15:08:22.627Z,48.42
2023-02-16T15:10:54.166Z,47.81
2023-02-16T15:13:23.107Z,47.60
2023-02-16T15:15:55.998Z,47.90
2023-02-16T15:18:27.441Z,48.23
2023-02-16T15:20:57.346Z,47.84
2023-02-16T15:23:29.658Z,48.55
2023-02-16T15:26:02.353Z,47.67
2023-02-16T15:28:35.811Z,47.75
2023-02-16T15:31:23.834Z,47.60
2023-02-16T15:33:56.868Z,48.32
2023-02-16T15:36:31.392Z,48.06
2023-02-16T15:39:01.677Z,47.77
2023-02-16T15:41:41.276Z,47.89
2023-02-16T15:44:29.494Z,48.50
2023-02-16T15:47:22.345Z,48.56
2023-02-16T15:49:49.537Z,47.65
2023-02-16T15:52:21.568Z,48.57
2023-02-16T15:54:49.225Z,48.18
2023-02-16T15:57:23.955Z,48.46
2023-02-16T15:59:55.425Z,48.42
2023-02-16T16:02:38.428Z,48.60
2023-02-16T16:05:09.312Z,48.04
2023-02-16T16:07:39.980Z,48.58
2023-02-16T16:10:25.032Z,48.22
2023-02-16T16:12:54.459Z,48.40
2023-02-16T16:15:24.585Z,48.76
2023-02-16T16:17:53.752Z,48.13
2023-02-16T16:20:37.145Z,48.22
2023-02-16T16:23:05.497Z,48.07
2023-02-16T16:25:38.246Z,48.51
2023-02-16T16:28:08.182Z,48.42
2023-02-16T16:30:43.950Z,48.42
2023-02-16T16:33:13.957Z,48.35
2023-02-16T16:35:44.846Z,48.40
2023-02-16T16:38:25.327Z,48.47
2023-02-16T16:40:54.858Z,48.47
2023-02-16T16:43:28.036Z,48.17
2023-02-16T16:46:33.218Z,48.33
2023-02-16T16:49:04.308Z,49.02
2023-02-16T16:51:31.612Z,49.00
2023-02-16T16:54:00.706Z,48.93
2023-02-16T16:56:34.884Z,49.25
2023-02-16T16:59:01.711Z,48.75
2023-02-16T17:01:28.941Z,49.24
2023-02-16T17:03:55.741Z,48.67
2023-02-16T17:06:23.170Z,48.71
2023-02-16T17:08:50.048Z,48.82
2023-02-16T17:11:33.060Z,49.52
2023-02-16T17:14:14.210Z,49.08
2023-02-16T17:16:43.060Z,48.90
2023-02-16T17:19:17.561Z,48.91
2023-02-16T17:21:45.468Z,48.91
2023-02-16T17:24:12.010Z,49.41
2023-02-16T17:26:38.942Z,48.92
2023-02-16T17:29:06.858Z,49.08
2023-02-16T17:31:34.054Z,49.55
2023-02-16T17:34:00.870Z,49.59
2023-02-16T17:36:28.032Z,49.63
2023-02-16T17:38:54.853Z,49.51
2023-02-16T17:41:29.329Z,48.88
2023-02-16T17:43:55.898Z,49.07
2023-02-16T17:46:22.979Z,49.47
2023-02-16T17:48:53.289Z,49.60
2023-02-16T17:51:22.975Z,49.01
2023-02-16T17:53:49.626Z,49.16
2023-02-16T17:56:19.163Z,49.12
2023-02-16T17:58:46.173Z,49.35
2023-02-16T18:01:15.158Z,49.27
2023-02-16T18:03:41.862Z,49.13
2023-02-16T18:06:12.808Z,49.00
2023-02-16T18:08:39.485Z,49.95
2023-02-16T18:11:06.185Z,48.87
2023-02-16T18:13:32.810Z,49.43
2023-02-16T18:16:03.634Z,49.70
2023-02-16T18:18:30.689Z,49.57
2023-02-16T18:20:57.252Z,49.18
2023-02-16T18:23:23.832Z,49.50
2023-02-16T18:25:50.392Z,49.50
2023-02-16T18:28:27.871Z,49.73
2023-02-16T18:30:54.506Z,49.71
2023-02-16T18:33:22.122Z,49.69
2023-02-16T18:35:51.658Z,49.61
2023-02-16T18:38:20.049Z,49.43
2023-02-16T18:40:48.674Z,49.83
2023-02-16T18:43:15.468Z,49.04
2023-02-16T18:45:42.347Z,50.08
2023-02-16T18:48:08.989Z,49.25
2023-02-16T18:50:35.573Z,49.53
2023-02-16T18:53:02.102Z,49.94
2023-02-16T18:55:32.885Z,50.10
2023-02-16T18:58:00.764Z,49.03
2023-02-16T19:00:27.737Z,49.82
2023-02-16T19:02:55.346Z,49.71
2023-02-16T19:05:22.133Z,50.07
2023-02-16T19:07:48.938Z,49.82
2023-02-16T19:10:16.011Z,49.17
2023-02-16T19:12:42.517Z,49.04
2023-02-16T19:15:09.328Z,49.15
2023-02-16T19:17:36.237Z,49.70
2023-02-16T19:20:02.894Z,48.94
2023-02-16T19:22:29.473Z,50.01
2023-02-16T19:24:56.629Z,49.25
2023-02-16T19:27:23.191Z,49.91
2023-02-16T19:29:49.739Z,49.94
2023-02-16T19:32:19.203Z,49.62
2023-02-16T19:34:45.901Z,49.90
2023-02-16T19:37:12.442Z,49.24
2023-02-16T19:39:38.975Z,49.42
2023-02-16T19:42:05.614Z,50.05
2023-02-16T19:44:34.054Z,49.70
2023-02-16T19:47:00.615Z,49.75
2023-02-16T19:49:27.126Z,49.21
2023-02-16T19:51:54.844Z,49.66
2023-02-16T19:54:22.136Z,49.25
2023-02-16T19:56:48.760Z,49.64
2023-02-16T19:59:15.968Z,49.44
2023-02-16T20:01:42.561Z,49.37
2023-02-16T20:04:09.770Z,49.42
2023-02-16T20:06:39.171Z,49.45
2023-02-16T20:09:06.206Z,49.71
2023-02-16T20:11:32.876Z,49.40
2023-02-16T20:13:59.559Z,49.67
2023-02-16T20:16:27.064Z,49.97
2023-02-16T20:18:55.195Z,50.14
2023-02-16T20:21:27.263Z,49.14
2023-02-16T20:24:03.160Z,49.92
2023-02-16T20:26:35.734Z,49.65
2023-02-16T20:29:04.219Z,49.44
2023-02-16T20:31:37.676Z,49.41
2023-02-16T20:34:05.913Z,50.02
2023-02-16T20:36:32.563Z,49.26
2023-02-16T20:38:59.323Z,49.54
2023-02-16T20:41:25.847Z,49.58
2023-02-16T20:43:52.965Z,49.76
2023-02-16T20:46:19.591Z,49.80
2023-02-16T20:48:46.454Z,49.38
2023-02-16T20:51:14.163Z,49.60
2023-02-16T20:53:40.865Z,49.55
2023-02-16T20:56:14.718Z,49.62
2023-02-16T20:58:43.007Z,50.04
2023-02-16T21:01:20.903Z,49.34
2023-02-16T21:03:48.218Z,49.52
2023-02-16T21:06:15.238Z,50.27
2023-02-16T21:08:41.891Z,49.88
2023-02-16T21:11:08.461Z,49.81
2023-02-16T21:13:37.087Z,49.77
2023-02-16T21:16:04.390Z,50.26
2023-02-16T21:18:31.289Z,49.75
2023-02-16T21:21:00.179Z,49.54
2023-02-16T21:23:26.862Z,49.86
2023-02-16T21:26:01.321Z,49.94
2023-02-16T21:28:28.397Z,49.87
2023-02-16T21:30:55.785Z,49.55
2023-02-16T21:33:23.042Z,49.67
2023-02-16T21:35:49.569Z,49.45
2023-02-16T21:38:17.688Z,50.02
2023-02-16T21:41:03.088Z,49.91
2023-02-16T21:43:29.683Z,49.47
2023-02-16T21:46:02.497Z,49.14
2023-02-16T21:48:47.641Z,50.04
2023-02-16T21:51:17.656Z,49.99
2023-02-16T21:53:44.470Z,49.64
2023-02-16T21:56:24.395Z,50.16
2023-02-16T21:58:51.001Z,49.78
2023-02-16T22:01:23.783Z,50.08
2023-02-16T22:03:56.017Z,49.40
2023-02-16T22:06:24.741Z,49.91
2023-02-16T22:08:51.550Z,49.91
2023-02-16T22:11:18.143Z,49.66
2023-02-16T22:13:44.728Z,49.12
2023-02-16T22:16:17.405Z,49.59
2023-02-16T22:18:44.626Z,49.89
2023-02-16T22:21:11.291Z,50.30
2023-02-16T22:23:38.656Z,50.09
2023-02-16T22:26:08.463Z,49.26
2023-02-16T22:28:36.908Z,49.87
2023-02-16T22:31:08.541Z,49.51
2023-02-16T22:33:35.615Z,49.48
2023-02-16T22:36:12.728Z,49.62
2023-02-16T22:38:40.579Z,49.84
2023-02-16T22:41:08.248Z,50.00
2023-02-16T22:43:35.447Z,49.46
2023-02-16T22:46:07.554Z,49.80
2023-02-16T22:48:35.605Z,49.36
2023-02-16T22:51:04.296Z,49.11
2023-02-16T22:53:31.131Z,49.56
2023-02-16T22:55:57.697Z,49.51
2023-02-16T22:58:24.237Z,49.20
2023-02-16T23:00:51.052Z,49.11
2023-02-16T23:03:18.156Z,49.46
2023-02-16T23:05:45.343Z,49.47
2023-02-16T23:08:11.890Z,49.52
2023-02-16T23:10:39.862Z,49.89
2023-02-16T23:13:08.487Z,49.48
2023-02-16T23:15:35.959Z,49.67
2023-02-16T23:18:02.696Z,49.99
2023-02-16T23:20:29.365Z,49.95
2023-02-16T23:22:55.865Z,49.07
2023-02-16T23:25:34.633Z,49.49
2023-02-16T23:28:02.916Z,49.38
2023-02-16T23:30:30.603Z,49.56
2023-02-16T23:32:57.886Z,49.27
2023-02-16T23:35:24.382Z,49.26
2023-02-16T23:37:50.945Z,49.37
2023-02-16T23:40:17.479Z,49.62
2023-02-16T23:42:43.959Z,49.55
2023-02-16T23:45:10.446Z,49.60
2023-02-16T23:47:36.949Z,49.63
2023-02-16T23:50:03.551Z,49.90
2023-02-16T23:52:30.095Z,49.98
2023-02-16T23:54:56.585Z,49.44
2023-02-16T23:57:23.113Z,49.90
2023-02-16T23:59:49.624Z,49.35
